ANA381 RJTT-RJOH
Flight info
| Callsign | ANA381 |
|---|---|
| Flight time | 1h 4m |
| Altitude | 36000 |
| Route | BEKLA Y18 RAKDA |
| Aircraft | A321/M-SDE3FGHIRWY/LB1 |
Departure
| Time | 2026-05-06 13:03 |
|---|---|
| Airport | Tokyo Haneda International Airport (RJTT) |
Arrival
| Time | 2026-05-06 14:07 |
|---|---|
| Airport | Yonago Kitaro Airport / JASDF Miho Air Base (RJOH) |
| Time | Latitude | Longitude | Altitude | Speed | Heading |
|---|---|---|---|---|---|
| 2026-05-06 12:19 | 35.55322 | 139.78837 | 28 ft | 0 kts | 240° |
| 2026-05-06 12:48 | 35.55331 | 139.78855 | 27 ft | 4 kts | 240° |
| 2026-05-06 12:48 | 35.55342 | 139.78880 | 27 ft | 2 kts | 239° |
| 2026-05-06 12:48 | 35.55352 | 139.78907 | 27 ft | 4 kts | 272° |
| 2026-05-06 12:48 | 35.55342 | 139.78933 | 27 ft | 4 kts | 324° |
| 2026-05-06 12:49 | 35.55332 | 139.78942 | 28 ft | 0 kts | 330° |
| 2026-05-06 12:53 | 35.55333 | 139.78941 | 27 ft | 2 kts | 330° |
| 2026-05-06 12:53 | 35.55382 | 139.78937 | 28 ft | 9 kts | 24° |
| 2026-05-06 12:53 | 35.55423 | 139.78989 | 27 ft | 9 kts | 53° |
| 2026-05-06 12:54 | 35.55444 | 139.79054 | 26 ft | 8 kts | 95° |
| 2026-05-06 12:54 | 35.55410 | 139.79108 | 26 ft | 8 kts | 147° |
| 2026-05-06 12:54 | 35.55360 | 139.79144 | 27 ft | 8 kts | 149° |
| 2026-05-06 12:54 | 35.55284 | 139.79198 | 27 ft | 19 kts | 150° |
| 2026-05-06 12:55 | 35.55163 | 139.79284 | 26 ft | 20 kts | 150° |
| 2026-05-06 12:55 | 35.55040 | 139.79371 | 30 ft | 20 kts | 149° |
| 2026-05-06 12:55 | 35.54925 | 139.79454 | 27 ft | 17 kts | 150° |
| 2026-05-06 12:55 | 35.54868 | 139.79494 | 28 ft | 6 kts | 150° |
| 2026-05-06 12:56 | 35.54862 | 139.79498 | 28 ft | 0 kts | 150° |
| 2026-05-06 12:57 | 35.54837 | 139.79516 | 28 ft | 10 kts | 150° |
| 2026-05-06 12:57 | 35.54748 | 139.79579 | 29 ft | 17 kts | 150° |
| 2026-05-06 12:57 | 35.54643 | 139.79653 | 23 ft | 18 kts | 150° |
| 2026-05-06 12:57 | 35.54537 | 139.79728 | 25 ft | 18 kts | 150° |
| 2026-05-06 12:58 | 35.54429 | 139.79805 | 21 ft | 19 kts | 150° |
| 2026-05-06 12:58 | 35.54315 | 139.79886 | 21 ft | 19 kts | 150° |
| 2026-05-06 12:58 | 35.54200 | 139.79967 | 20 ft | 19 kts | 150° |
| 2026-05-06 12:58 | 35.54146 | 139.80052 | 20 ft | 12 kts | 82° |
| 2026-05-06 12:59 | 35.54180 | 139.80136 | 22 ft | 10 kts | 59° |
| 2026-05-06 12:59 | 35.54204 | 139.80185 | 23 ft | 0 kts | 59° |
| 2026-05-06 13:01 | 35.54222 | 139.80222 | 27 ft | 10 kts | 59° |
| 2026-05-06 13:01 | 35.54257 | 139.80268 | 27 ft | 6 kts | 27° |
| 2026-05-06 13:01 | 35.54311 | 139.80271 | 28 ft | 12 kts | 335° |
| 2026-05-06 13:01 | 35.54330 | 139.80259 | 28 ft | 0 kts | 330° |
| 2026-05-06 13:02 | 35.54331 | 139.80258 | 28 ft | 1 kts | 330° |
| 2026-05-06 13:02 | 35.54479 | 139.80153 | 28 ft | 61 kts | 330° |
| 2026-05-06 13:02 | 35.55052 | 139.79746 | 29 ft | 126 kts | 330° |
| 2026-05-06 13:03 | 35.55957 | 139.79106 | 46 ft | 170 kts | 330° |
| 2026-05-06 13:03 | 35.56985 | 139.78388 | 627 ft | 167 kts | 330° |
| 2026-05-06 13:03 | 35.58067 | 139.77875 | 1091 ft | 178 kts | 0° |
| 2026-05-06 13:03 | 35.59185 | 139.78441 | 1624 ft | 178 kts | 48° |
| 2026-05-06 13:04 | 35.59799 | 139.79786 | 1974 ft | 189 kts | 72° |
| 2026-05-06 13:04 | 35.60311 | 139.81370 | 2141 ft | 211 kts | 72° |
| 2026-05-06 13:04 | 35.60868 | 139.83140 | 2311 ft | 233 kts | 76° |
| 2026-05-06 13:04 | 35.61023 | 139.85182 | 2566 ft | 247 kts | 96° |
| 2026-05-06 13:05 | 35.60967 | 139.87388 | 3026 ft | 267 kts | 94° |
| 2026-05-06 13:05 | 35.60933 | 139.89702 | 3809 ft | 274 kts | 94° |
| 2026-05-06 13:05 | 35.61015 | 139.92062 | 4614 ft | 282 kts | 80° |
| 2026-05-06 13:05 | 35.61831 | 139.94247 | 5357 ft | 291 kts | 51° |
| 2026-05-06 13:06 | 35.63405 | 139.95797 | 6134 ft | 294 kts | 22° |
| 2026-05-06 13:06 | 35.65380 | 139.96341 | 6917 ft | 292 kts | 359° |
| 2026-05-06 13:06 | 35.67411 | 139.96465 | 7722 ft | 294 kts | 358° |
| 2026-05-06 13:06 | 35.69464 | 139.96563 | 8493 ft | 297 kts | 354° |
| 2026-05-06 13:07 | 35.71447 | 139.96033 | 9270 ft | 290 kts | 329° |
| 2026-05-06 13:07 | 35.73040 | 139.94605 | 10045 ft | 281 kts | 305° |
| 2026-05-06 13:07 | 35.74054 | 139.92567 | 10503 ft | 286 kts | 285° |
| 2026-05-06 13:07 | 35.74447 | 139.90133 | 10704 ft | 304 kts | 275° |
| 2026-05-06 13:08 | 35.74740 | 139.87511 | 11209 ft | 314 kts | 275° |
| 2026-05-06 13:08 | 35.75044 | 139.84826 | 11876 ft | 319 kts | 275° |
| 2026-05-06 13:08 | 35.75358 | 139.82109 | 12571 ft | 323 kts | 276° |
| 2026-05-06 13:08 | 35.75682 | 139.79355 | 13254 ft | 328 kts | 276° |
| 2026-05-06 13:09 | 35.76014 | 139.76559 | 13943 ft | 332 kts | 276° |
| 2026-05-06 13:09 | 35.76352 | 139.73731 | 14551 ft | 336 kts | 277° |
| 2026-05-06 13:09 | 35.76924 | 139.70924 | 15174 ft | 341 kts | 285° |
| 2026-05-06 13:09 | 35.77632 | 139.68128 | 15830 ft | 343 kts | 284° |
| 2026-05-06 13:10 | 35.78343 | 139.65309 | 16493 ft | 345 kts | 284° |
| 2026-05-06 13:10 | 35.79055 | 139.62474 | 17144 ft | 348 kts | 284° |
| 2026-05-06 13:10 | 35.79769 | 139.59614 | 17799 ft | 351 kts | 285° |
| 2026-05-06 13:10 | 35.80480 | 139.56763 | 18356 ft | 356 kts | 285° |
| 2026-05-06 13:11 | 35.81207 | 139.53834 | 18890 ft | 359 kts | 284° |
| 2026-05-06 13:11 | 35.81936 | 139.50900 | 19470 ft | 359 kts | 284° |
| 2026-05-06 13:11 | 35.82621 | 139.47942 | 20065 ft | 357 kts | 278° |
| 2026-05-06 13:11 | 35.82888 | 139.44917 | 20667 ft | 354 kts | 268° |
| 2026-05-06 13:12 | 35.82928 | 139.41892 | 21286 ft | 353 kts | 268° |
| 2026-05-06 13:12 | 35.82969 | 139.38947 | 21897 ft | 352 kts | 268° |
| 2026-05-06 13:12 | 35.83013 | 139.35938 | 22517 ft | 351 kts | 267° |
| 2026-05-06 13:12 | 35.83059 | 139.32972 | 23136 ft | 350 kts | 267° |
| 2026-05-06 13:13 | 35.83107 | 139.29977 | 23761 ft | 349 kts | 266° |
| 2026-05-06 13:13 | 35.83155 | 139.26993 | 24249 ft | 349 kts | 266° |
| 2026-05-06 13:13 | 35.83198 | 139.24000 | 24706 ft | 349 kts | 266° |
| 2026-05-06 13:13 | 35.83237 | 139.21005 | 25133 ft | 351 kts | 267° |
| 2026-05-06 13:14 | 35.83274 | 139.17991 | 25484 ft | 353 kts | 267° |
| 2026-05-06 13:14 | 35.83265 | 139.14962 | 25881 ft | 354 kts | 265° |
| 2026-05-06 13:14 | 35.83159 | 139.11935 | 26319 ft | 354 kts | 263° |
| 2026-05-06 13:14 | 35.82999 | 139.08908 | 26618 ft | 355 kts | 263° |
| 2026-05-06 13:15 | 35.82818 | 139.05908 | 27028 ft | 357 kts | 263° |
| 2026-05-06 13:15 | 35.82636 | 139.02855 | 27419 ft | 358 kts | 263° |
| 2026-05-06 13:15 | 35.82465 | 138.99789 | 27848 ft | 359 kts | 262° |
| 2026-05-06 13:15 | 35.82305 | 138.96715 | 28283 ft | 360 kts | 262° |
| 2026-05-06 13:16 | 35.82149 | 138.93633 | 28684 ft | 361 kts | 262° |
| 2026-05-06 13:16 | 35.81995 | 138.90539 | 29091 ft | 363 kts | 262° |
| 2026-05-06 13:16 | 35.81842 | 138.87433 | 29480 ft | 364 kts | 262° |
| 2026-05-06 13:16 | 35.81684 | 138.84307 | 29803 ft | 365 kts | 262° |
| 2026-05-06 13:17 | 35.81525 | 138.81171 | 29979 ft | 370 kts | 262° |
| 2026-05-06 13:17 | 35.81363 | 138.77986 | 30118 ft | 375 kts | 262° |
| 2026-05-06 13:17 | 35.81199 | 138.74803 | 30251 ft | 381 kts | 262° |
| 2026-05-06 13:17 | 35.81028 | 138.71518 | 30413 ft | 387 kts | 262° |
| 2026-05-06 13:18 | 35.80854 | 138.68195 | 30522 ft | 391 kts | 262° |
| 2026-05-06 13:18 | 35.80680 | 138.64839 | 30663 ft | 393 kts | 262° |
| 2026-05-06 13:18 | 35.80509 | 138.61476 | 30862 ft | 394 kts | 262° |
| 2026-05-06 13:18 | 35.80338 | 138.58104 | 31106 ft | 394 kts | 262° |
| 2026-05-06 13:19 | 35.80166 | 138.54748 | 31365 ft | 393 kts | 262° |
| 2026-05-06 13:19 | 35.79991 | 138.51395 | 31616 ft | 392 kts | 262° |
| 2026-05-06 13:19 | 35.79813 | 138.48089 | 31880 ft | 391 kts | 262° |
| 2026-05-06 13:19 | 35.79630 | 138.44753 | 32193 ft | 390 kts | 262° |
| 2026-05-06 13:20 | 35.79449 | 138.41428 | 32488 ft | 389 kts | 262° |
| 2026-05-06 13:20 | 35.79269 | 138.38110 | 32754 ft | 387 kts | 261° |
| 2026-05-06 13:20 | 35.79089 | 138.34805 | 33025 ft | 387 kts | 262° |
| 2026-05-06 13:20 | 35.78936 | 138.31499 | 33307 ft | 386 kts | 262° |
| 2026-05-06 13:21 | 35.78805 | 138.28203 | 33583 ft | 385 kts | 262° |
| 2026-05-06 13:21 | 35.78689 | 138.24915 | 33848 ft | 384 kts | 262° |
| 2026-05-06 13:21 | 35.78578 | 138.21680 | 34119 ft | 383 kts | 262° |
| 2026-05-06 13:21 | 35.78462 | 138.18410 | 34334 ft | 381 kts | 262° |
| 2026-05-06 13:22 | 35.78342 | 138.15158 | 34605 ft | 380 kts | 262° |
| 2026-05-06 13:22 | 35.78217 | 138.11918 | 34898 ft | 378 kts | 262° |
| 2026-05-06 13:22 | 35.78088 | 138.08692 | 35173 ft | 377 kts | 262° |
| 2026-05-06 13:22 | 35.77957 | 138.05478 | 35420 ft | 375 kts | 262° |
| 2026-05-06 13:23 | 35.77822 | 138.02271 | 35663 ft | 374 kts | 262° |
| 2026-05-06 13:23 | 35.77688 | 137.99077 | 35903 ft | 373 kts | 262° |
| 2026-05-06 13:23 | 35.77558 | 137.95935 | 36110 ft | 373 kts | 262° |
| 2026-05-06 13:24 | 35.77298 | 137.89567 | 36183 ft | 371 kts | 262° |
| 2026-05-06 13:24 | 35.77034 | 137.83214 | 36186 ft | 372 kts | 262° |
| 2026-05-06 13:24 | 35.76904 | 137.80079 | 36169 ft | 360 kts | 262° |
| 2026-05-06 13:25 | 35.76772 | 137.76998 | 36176 ft | 364 kts | 261° |
| 2026-05-06 13:25 | 35.76487 | 137.70732 | 36177 ft | 372 kts | 262° |
| 2026-05-06 13:26 | 35.76205 | 137.64371 | 36176 ft | 373 kts | 262° |
| 2026-05-06 13:26 | 35.75929 | 137.58001 | 36169 ft | 370 kts | 262° |
| 2026-05-06 13:26 | 35.75799 | 137.54891 | 36161 ft | 356 kts | 262° |
| 2026-05-06 13:27 | 35.75675 | 137.51888 | 36167 ft | 349 kts | 261° |
| 2026-05-06 13:27 | 35.75412 | 137.46000 | 36160 ft | 339 kts | 261° |
| 2026-05-06 13:28 | 35.75137 | 137.40174 | 36162 ft | 344 kts | 261° |
| 2026-05-06 13:28 | 35.74858 | 137.34330 | 36160 ft | 346 kts | 261° |
| 2026-05-06 13:29 | 35.74582 | 137.28397 | 36143 ft | 347 kts | 261° |
| 2026-05-06 13:29 | 35.74303 | 137.22462 | 36174 ft | 347 kts | 261° |
| 2026-05-06 13:30 | 35.74026 | 137.16540 | 36177 ft | 347 kts | 261° |
| 2026-05-06 13:30 | 35.73746 | 137.10659 | 36167 ft | 347 kts | 261° |
| 2026-05-06 13:31 | 35.73455 | 137.04741 | 36166 ft | 346 kts | 261° |
| 2026-05-06 13:31 | 35.73164 | 136.98818 | 36165 ft | 347 kts | 261° |
| 2026-05-06 13:32 | 35.72864 | 136.92882 | 36147 ft | 349 kts | 261° |
| 2026-05-06 13:32 | 35.72564 | 136.86935 | 36153 ft | 350 kts | 261° |
| 2026-05-06 13:33 | 35.72259 | 136.80957 | 36137 ft | 350 kts | 261° |
| 2026-05-06 13:33 | 35.71955 | 136.74972 | 36156 ft | 352 kts | 262° |
| 2026-05-06 13:34 | 35.71639 | 136.68930 | 36156 ft | 355 kts | 262° |
| 2026-05-06 13:34 | 35.71322 | 136.62865 | 36155 ft | 356 kts | 262° |
| 2026-05-06 13:35 | 35.71010 | 136.56833 | 36135 ft | 356 kts | 261° |
| 2026-05-06 13:35 | 35.70693 | 136.50756 | 36126 ft | 356 kts | 262° |
| 2026-05-06 13:36 | 35.70364 | 136.44672 | 36122 ft | 357 kts | 262° |
| 2026-05-06 13:36 | 35.70029 | 136.38584 | 36120 ft | 357 kts | 262° |
| 2026-05-06 13:37 | 35.69697 | 136.32526 | 36132 ft | 359 kts | 262° |
| 2026-05-06 13:37 | 35.69357 | 136.26305 | 36134 ft | 368 kts | 263° |
| 2026-05-06 13:38 | 35.69016 | 136.20020 | 36125 ft | 369 kts | 263° |
| 2026-05-06 13:38 | 35.68669 | 136.13710 | 36106 ft | 370 kts | 263° |
| 2026-05-06 13:39 | 35.68314 | 136.07429 | 36102 ft | 371 kts | 263° |
| 2026-05-06 13:39 | 35.67942 | 136.01101 | 36099 ft | 371 kts | 263° |
| 2026-05-06 13:40 | 35.67569 | 135.94772 | 36095 ft | 373 kts | 263° |
| 2026-05-06 13:40 | 35.67197 | 135.88379 | 36094 ft | 376 kts | 263° |
| 2026-05-06 13:41 | 35.66820 | 135.81965 | 36100 ft | 384 kts | 264° |
| 2026-05-06 13:41 | 35.66430 | 135.75385 | 36101 ft | 387 kts | 264° |
| 2026-05-06 13:42 | 35.66030 | 135.68762 | 35789 ft | 389 kts | 265° |
| 2026-05-06 13:42 | 35.65828 | 135.65429 | 35547 ft | 394 kts | 265° |
| 2026-05-06 13:42 | 35.65624 | 135.62059 | 35307 ft | 397 kts | 265° |
| 2026-05-06 13:42 | 35.65418 | 135.58655 | 34641 ft | 404 kts | 266° |
| 2026-05-06 13:43 | 35.65211 | 135.55274 | 34345 ft | 399 kts | 266° |
| 2026-05-06 13:43 | 35.65001 | 135.51860 | 34192 ft | 404 kts | 266° |
| 2026-05-06 13:43 | 35.64787 | 135.48396 | 34016 ft | 408 kts | 266° |
| 2026-05-06 13:43 | 35.64572 | 135.44920 | 33595 ft | 407 kts | 266° |
| 2026-05-06 13:44 | 35.64356 | 135.41466 | 33083 ft | 403 kts | 267° |
| 2026-05-06 13:44 | 35.64142 | 135.38044 | 32572 ft | 400 kts | 267° |
| 2026-05-06 13:44 | 35.63927 | 135.34647 | 32058 ft | 397 kts | 267° |
| 2026-05-06 13:44 | 35.63711 | 135.31272 | 31563 ft | 394 kts | 267° |
| 2026-05-06 13:45 | 35.63497 | 135.27923 | 31073 ft | 392 kts | 267° |
| 2026-05-06 13:45 | 35.63075 | 135.21327 | 30091 ft | 388 kts | 268° |
| 2026-05-06 13:45 | 35.62864 | 135.18035 | 29572 ft | 385 kts | 268° |
| 2026-05-06 13:46 | 35.62656 | 135.14775 | 29093 ft | 381 kts | 268° |
| 2026-05-06 13:46 | 35.62449 | 135.11551 | 28622 ft | 377 kts | 268° |
| 2026-05-06 13:46 | 35.62243 | 135.08357 | 28164 ft | 373 kts | 268° |
| 2026-05-06 13:46 | 35.62034 | 135.05192 | 27706 ft | 370 kts | 268° |
| 2026-05-06 13:47 | 35.61826 | 135.02056 | 27255 ft | 366 kts | 268° |
| 2026-05-06 13:47 | 35.61624 | 134.98995 | 26836 ft | 362 kts | 268° |
| 2026-05-06 13:47 | 35.61421 | 134.95921 | 26405 ft | 359 kts | 268° |
| 2026-05-06 13:47 | 35.61218 | 134.92883 | 26074 ft | 353 kts | 268° |
| 2026-05-06 13:48 | 35.61017 | 134.89862 | 25585 ft | 354 kts | 268° |
| 2026-05-06 13:48 | 35.60817 | 134.86859 | 25171 ft | 351 kts | 267° |
| 2026-05-06 13:48 | 35.60616 | 134.83882 | 24782 ft | 349 kts | 267° |
| 2026-05-06 13:48 | 35.60415 | 134.80921 | 24394 ft | 346 kts | 267° |
| 2026-05-06 13:49 | 35.60215 | 134.77981 | 23979 ft | 344 kts | 267° |
| 2026-05-06 13:49 | 35.60019 | 134.75101 | 23573 ft | 342 kts | 267° |
| 2026-05-06 13:49 | 35.59820 | 134.72195 | 23138 ft | 340 kts | 267° |
| 2026-05-06 13:49 | 35.59624 | 134.69312 | 22738 ft | 338 kts | 267° |
| 2026-05-06 13:50 | 35.59426 | 134.66446 | 22341 ft | 336 kts | 267° |
| 2026-05-06 13:50 | 35.59228 | 134.63598 | 21939 ft | 334 kts | 267° |
| 2026-05-06 13:50 | 35.59032 | 134.60753 | 21534 ft | 333 kts | 267° |
| 2026-05-06 13:50 | 35.58837 | 134.57922 | 21126 ft | 332 kts | 266° |
| 2026-05-06 13:51 | 35.58642 | 134.55101 | 20716 ft | 331 kts | 266° |
| 2026-05-06 13:51 | 35.58448 | 134.52289 | 20310 ft | 330 kts | 266° |
| 2026-05-06 13:51 | 35.58255 | 134.49526 | 19903 ft | 329 kts | 266° |
| 2026-05-06 13:51 | 35.58058 | 134.46736 | 19480 ft | 328 kts | 266° |
| 2026-05-06 13:52 | 35.57860 | 134.43951 | 19070 ft | 327 kts | 266° |
| 2026-05-06 13:52 | 35.57662 | 134.41171 | 18663 ft | 326 kts | 266° |
| 2026-05-06 13:52 | 35.57464 | 134.38403 | 18239 ft | 325 kts | 266° |
| 2026-05-06 13:52 | 35.57266 | 134.35636 | 17801 ft | 324 kts | 266° |
| 2026-05-06 13:53 | 35.57069 | 134.32890 | 17406 ft | 322 kts | 265° |
| 2026-05-06 13:53 | 35.56875 | 134.30159 | 17013 ft | 320 kts | 265° |
| 2026-05-06 13:53 | 35.56680 | 134.27443 | 16613 ft | 318 kts | 265° |
| 2026-05-06 13:53 | 35.56488 | 134.24779 | 16239 ft | 316 kts | 265° |
| 2026-05-06 13:54 | 35.56293 | 134.22100 | 15866 ft | 315 kts | 265° |
| 2026-05-06 13:54 | 35.56099 | 134.19433 | 15481 ft | 313 kts | 265° |
| 2026-05-06 13:54 | 35.55906 | 134.16779 | 15102 ft | 311 kts | 265° |
| 2026-05-06 13:54 | 35.55714 | 134.14134 | 14722 ft | 310 kts | 265° |
| 2026-05-06 13:55 | 35.55521 | 134.11502 | 14335 ft | 309 kts | 264° |
| 2026-05-06 13:55 | 35.55327 | 134.08882 | 13965 ft | 308 kts | 264° |
| 2026-05-06 13:55 | 35.55134 | 134.06266 | 13557 ft | 307 kts | 264° |
| 2026-05-06 13:55 | 35.54944 | 134.03690 | 13108 ft | 308 kts | 264° |
| 2026-05-06 13:56 | 35.54750 | 134.01078 | 12679 ft | 307 kts | 264° |
| 2026-05-06 13:56 | 35.54557 | 133.98482 | 12273 ft | 304 kts | 264° |
| 2026-05-06 13:56 | 35.54366 | 133.95902 | 11895 ft | 302 kts | 264° |
| 2026-05-06 13:56 | 35.54179 | 133.93342 | 11507 ft | 300 kts | 264° |
| 2026-05-06 13:57 | 35.53990 | 133.90791 | 11129 ft | 299 kts | 263° |
| 2026-05-06 13:57 | 35.53800 | 133.88261 | 10740 ft | 297 kts | 263° |
| 2026-05-06 13:57 | 35.53608 | 133.85747 | 10351 ft | 295 kts | 263° |
| 2026-05-06 13:57 | 35.53417 | 133.83259 | 10127 ft | 288 kts | 263° |
| 2026-05-06 13:58 | 35.53234 | 133.80875 | 9923 ft | 281 kts | 263° |
| 2026-05-06 13:58 | 35.53048 | 133.78483 | 9795 ft | 281 kts | 263° |
| 2026-05-06 13:58 | 35.52863 | 133.76076 | 9286 ft | 285 kts | 263° |
| 2026-05-06 13:58 | 35.52678 | 133.73672 | 8951 ft | 280 kts | 263° |
| 2026-05-06 13:59 | 35.52497 | 133.71305 | 8404 ft | 277 kts | 264° |
| 2026-05-06 13:59 | 35.52318 | 133.68957 | 7730 ft | 275 kts | 264° |
| 2026-05-06 13:59 | 35.52177 | 133.66629 | 7086 ft | 273 kts | 271° |
| 2026-05-06 13:59 | 35.52477 | 133.64354 | 6443 ft | 269 kts | 288° |
| 2026-05-06 14:00 | 35.53278 | 133.62343 | 5702 ft | 266 kts | 303° |
| 2026-05-06 14:00 | 35.54467 | 133.60688 | 5405 ft | 245 kts | 311° |
| 2026-05-06 14:00 | 35.55585 | 133.59229 | 5352 ft | 229 kts | 309° |
| 2026-05-06 14:00 | 35.56655 | 133.57799 | 5298 ft | 226 kts | 309° |
| 2026-05-06 14:01 | 35.57713 | 133.56373 | 5221 ft | 226 kts | 309° |
| 2026-05-06 14:01 | 35.58771 | 133.54948 | 5135 ft | 225 kts | 309° |
| 2026-05-06 14:01 | 35.59804 | 133.53557 | 5011 ft | 220 kts | 309° |
| 2026-05-06 14:01 | 35.60803 | 133.52121 | 4913 ft | 221 kts | 298° |
| 2026-05-06 14:02 | 35.61122 | 133.50336 | 4546 ft | 216 kts | 256° |
| 2026-05-06 14:02 | 35.60376 | 133.48836 | 4258 ft | 211 kts | 218° |
| 2026-05-06 14:02 | 35.59163 | 133.47848 | 3980 ft | 209 kts | 221° |
| 2026-05-06 14:02 | 35.58307 | 133.46419 | 3750 ft | 209 kts | 240° |
| 2026-05-06 14:03 | 35.57644 | 133.44831 | 3472 ft | 209 kts | 243° |
| 2026-05-06 14:03 | 35.57012 | 133.43233 | 3195 ft | 208 kts | 243° |
| 2026-05-06 14:03 | 35.56380 | 133.41637 | 2918 ft | 207 kts | 243° |
| 2026-05-06 14:03 | 35.55964 | 133.40589 | 2750 ft | 207 kts | 243° |
| 2026-05-06 14:04 | 35.55352 | 133.39044 | 2486 ft | 190 kts | 243° |
| 2026-05-06 14:04 | 35.54650 | 133.37272 | 2180 ft | 157 kts | 242° |
| 2026-05-06 14:04 | 35.54199 | 133.36135 | 1969 ft | 142 kts | 242° |
| 2026-05-06 14:04 | 35.53774 | 133.35066 | 1782 ft | 137 kts | 242° |
| 2026-05-06 14:05 | 35.53357 | 133.34019 | 1606 ft | 136 kts | 242° |
| 2026-05-06 14:05 | 35.52942 | 133.32977 | 1420 ft | 136 kts | 241° |
| 2026-05-06 14:05 | 35.52667 | 133.32284 | 1301 ft | 136 kts | 241° |
| 2026-05-06 14:05 | 35.52252 | 133.31242 | 1127 ft | 136 kts | 241° |
| 2026-05-06 14:06 | 35.51837 | 133.30199 | 944 ft | 136 kts | 242° |
| 2026-05-06 14:06 | 35.51420 | 133.29151 | 766 ft | 137 kts | 242° |
| 2026-05-06 14:06 | 35.51004 | 133.28096 | 612 ft | 137 kts | 243° |
| 2026-05-06 14:06 | 35.50464 | 133.26683 | 352 ft | 138 kts | 242° |
| 2026-05-06 14:07 | 35.50037 | 133.25631 | 153 ft | 137 kts | 241° |
| 2026-05-06 14:07 | 35.49750 | 133.24924 | 44 ft | 136 kts | 242° |
| 2026-05-06 14:07 | 35.49365 | 133.23994 | 19 ft | 90 kts | 243° |
| 2026-05-06 14:07 | 35.49203 | 133.23577 | 19 ft | 39 kts | 244° |
| 2026-05-06 14:08 | 35.49103 | 133.23329 | 17 ft | 27 kts | 242° |
| 2026-05-06 14:08 | 35.49107 | 133.23181 | 17 ft | 17 kts | 333° |
| 2026-05-06 14:08 | 35.49212 | 133.23173 | 15 ft | 15 kts | 27° |
| 2026-05-06 14:08 | 35.49266 | 133.23269 | 17 ft | 13 kts | 65° |
| 2026-05-06 14:09 | 35.49305 | 133.23369 | 18 ft | 13 kts | 64° |
| 2026-05-06 14:09 | 35.49342 | 133.23464 | 17 ft | 12 kts | 64° |
| 2026-05-06 14:09 | 35.49377 | 133.23553 | 17 ft | 11 kts | 64° |
| 2026-05-06 14:09 | 35.49416 | 133.23650 | 18 ft | 18 kts | 64° |
| 2026-05-06 14:10 | 35.49481 | 133.23815 | 18 ft | 22 kts | 64° |
| 2026-05-06 14:10 | 35.49548 | 133.23982 | 19 ft | 22 kts | 63° |
| 2026-05-06 14:10 | 35.49614 | 133.24145 | 20 ft | 21 kts | 64° |
| 2026-05-06 14:10 | 35.49674 | 133.24304 | 21 ft | 20 kts | 64° |
| 2026-05-06 14:11 | 35.49735 | 133.24458 | 22 ft | 19 kts | 64° |
| 2026-05-06 14:11 | 35.49799 | 133.24549 | 22 ft | 7 kts | 346° |
| 2026-05-06 14:11 | 35.49845 | 133.24523 | 22 ft | 9 kts | 346° |
| 2026-05-06 14:11 | 35.49891 | 133.24543 | 24 ft | 6 kts | 39° |
| 2026-05-06 14:12 | 35.49917 | 133.24573 | 24 ft | 4 kts | 13° |
| 2026-05-06 14:12 | 35.49955 | 133.24558 | 26 ft | 9 kts | 336° |
| 2026-05-06 14:12 | 35.49985 | 133.24540 | 26 ft | 0 kts | 334° |